createdAt,value
2019-04-14T00:00:35.838Z,1.70
2019-04-14T00:03:23.701Z,1.60
2019-04-14T00:05:56.169Z,1.60
2019-04-14T00:08:24.135Z,1.60
2019-04-14T00:10:52.930Z,1.60
2019-04-14T00:13:23.951Z,1.70
2019-04-14T00:15:53.287Z,1.70
2019-04-14T00:18:21.398Z,1.70
2019-04-14T00:20:49.316Z,1.80
2019-04-14T00:23:19.494Z,1.80
2019-04-14T00:25:47.700Z,1.80
2019-04-14T00:28:16.361Z,1.80
2019-04-14T00:30:44.776Z,1.80
2019-04-14T00:33:14.878Z,1.90
2019-04-14T00:36:00.469Z,1.90
2019-04-14T00:38:30.296Z,1.90
2019-04-14T00:41:02.911Z,1.90
2019-04-14T00:43:35.291Z,2.00
2019-04-14T00:46:21.203Z,2.00
2019-04-14T00:48:49.736Z,2.00
2019-04-14T00:51:17.800Z,2.00
2019-04-14T00:53:46.706Z,2.00
2019-04-14T00:56:15.067Z,2.00
2019-04-14T00:58:43.260Z,2.00
2019-04-14T01:01:11.280Z,2.00
2019-04-14T01:03:39.444Z,2.00
2019-04-14T01:06:07.725Z,1.90
2019-04-14T01:08:35.948Z,1.90
2019-04-14T01:11:05.174Z,1.90
2019-04-14T01:13:33.330Z,1.90
2019-04-14T01:16:08.904Z,1.90
2019-04-14T01:18:31.838Z,1.90
2019-04-14T01:21:00.265Z,1.80
2019-04-14T01:23:28.342Z,1.80
2019-04-14T01:25:56.508Z,1.70
2019-04-14T01:28:24.435Z,1.70
2019-04-14T01:30:52.389Z,1.70
2019-04-14T01:33:20.532Z,1.60
2019-04-14T01:35:48.902Z,1.60
2019-04-14T01:38:16.988Z,1.50
2019-04-14T01:40:44.920Z,1.50
2019-04-14T01:43:12.841Z,1.40
2019-04-14T01:45:40.877Z,1.40
2019-04-14T01:48:08.707Z,1.40
2019-04-14T01:50:41.017Z,1.30
2019-04-14T01:53:13.967Z,1.30
2019-04-14T01:55:44.095Z,1.30
2019-04-14T01:58:19.168Z,1.30
2019-04-14T02:00:49.289Z,1.20
2019-04-14T02:03:17.486Z,1.10
2019-04-14T02:05:45.426Z,1.10
2019-04-14T02:08:13.519Z,1.10
2019-04-14T02:10:41.497Z,1.10
2019-04-14T02:13:09.452Z,1.10
2019-04-14T02:15:37.465Z,1.00
2019-04-14T02:18:05.681Z,1.00
2019-04-14T02:20:33.928Z,1.00
2019-04-14T02:23:01.940Z,0.90
2019-04-14T02:25:29.832Z,0.80
2019-04-14T02:27:58.020Z,0.80
2019-04-14T02:30:34.022Z,0.80
2019-04-14T02:33:23.681Z,0.70
2019-04-14T02:35:55.963Z,0.70
2019-04-14T02:38:44.680Z,0.60
2019-04-14T02:40:58.016Z,0.60
2019-04-14T02:43:23.752Z,0.50
2019-04-14T02:45:55.890Z,0.50
2019-04-14T02:48:39.233Z,0.50
2019-04-14T02:50:48.191Z,0.50
2019-04-14T02:53:23.971Z,0.50
2019-04-14T02:55:48.562Z,0.40
2019-04-14T02:58:20.492Z,0.40
2019-04-14T03:00:50.178Z,0.40
2019-04-14T03:03:21.545Z,0.40
2019-04-14T03:08:17.295Z,0.40
2019-04-14T03:13:23.012Z,0.40
2019-04-14T03:15:53.793Z,0.40
2019-04-14T03:21:20.043Z,0.50
2019-04-14T03:23:58.003Z,0.40
2019-04-14T03:26:26.933Z,0.40
2019-04-14T03:29:21.366Z,0.40
2019-04-14T03:34:33.775Z,0.30
2019-04-14T03:39:17.355Z,0.30
2019-04-14T03:41:45.203Z,0.30
2019-04-14T03:44:18.665Z,0.30
2019-04-14T03:46:49.366Z,0.30
2019-04-14T03:49:17.882Z,0.30
2019-04-14T03:51:59.575Z,0.30
2019-04-14T03:54:10.895Z,0.30
2019-04-14T03:56:37.885Z,0.20
2019-04-14T03:59:06.402Z,0.20
2019-04-14T04:01:34.590Z,0.20
2019-04-14T04:04:03.265Z,0.20
2019-04-14T04:06:31.376Z,0.20
2019-04-14T04:08:59.696Z,0.20
2019-04-14T04:11:28.008Z,0.10
2019-04-14T04:13:56.369Z,0.10
2019-04-14T04:16:26.914Z,0.10
2019-04-14T04:19:02.703Z,0.10
2019-04-14T04:21:42.869Z,0.10
2019-04-14T04:24:12.858Z,0.00
2019-04-14T04:26:58.586Z,0.00
2019-04-14T04:29:28.797Z,0.00
2019-04-14T04:32:04.194Z,0.00
2019-04-14T04:34:33.887Z,0.00
2019-04-14T04:37:06.186Z,0.00
2019-04-14T04:39:36.971Z,0.00
2019-04-14T04:42:05.351Z,-0.10
2019-04-14T04:44:33.506Z,-0.10
2019-04-14T04:47:01.457Z,-0.10
2019-04-14T04:49:30.852Z,0.00
2019-04-14T04:51:59.667Z,0.00
2019-04-14T04:54:27.904Z,-0.10
2019-04-14T04:56:55.920Z,0.00
2019-04-14T04:59:23.920Z,0.00
2019-04-14T05:01:51.855Z,0.00
2019-04-14T05:04:19.884Z,0.00
2019-04-14T05:06:55.417Z,0.10
2019-04-14T05:09:25.260Z,0.10
2019-04-14T05:12:11.106Z,0.10
2019-04-14T05:14:57.071Z,0.10
2019-04-14T05:17:29.886Z,0.10
2019-04-14T05:19:58.419Z,0.10
2019-04-14T05:22:26.756Z,0.10
2019-04-14T05:24:55.029Z,0.20
2019-04-14T05:27:23.258Z,0.20
2019-04-14T05:29:51.562Z,0.30
2019-04-14T05:32:19.574Z,0.30
2019-04-14T05:34:47.891Z,0.40
2019-04-14T05:37:16.064Z,0.40
2019-04-14T05:39:44.156Z,0.50
2019-04-14T05:42:18.002Z,0.50
2019-04-14T05:44:42.602Z,0.50
2019-04-14T05:47:11.133Z,0.60
2019-04-14T05:49:44.940Z,0.60
2019-04-14T05:52:09.818Z,0.60
2019-04-14T05:54:38.282Z,0.70
2019-04-14T05:57:06.606Z,0.80
2019-04-14T05:59:35.324Z,0.80
2019-04-14T06:02:03.370Z,0.90
2019-04-14T06:04:31.283Z,1.00
2019-04-14T06:06:59.228Z,1.00
2019-04-14T06:09:27.899Z,1.00
2019-04-14T06:11:55.868Z,1.10
2019-04-14T06:14:23.706Z,1.10
2019-04-14T06:16:51.638Z,1.10
2019-04-14T06:19:19.829Z,1.20
2019-04-14T06:21:47.754Z,1.30
2019-04-14T06:24:15.709Z,1.30
2019-04-14T06:26:43.558Z,1.40
2019-04-14T06:29:11.572Z,1.50
2019-04-14T06:31:55.930Z,1.50
2019-04-14T06:34:28.144Z,1.50
2019-04-14T06:37:12.586Z,1.60
2019-04-14T06:39:48.157Z,1.70
2019-04-14T06:42:16.064Z,1.80
2019-04-14T06:44:44.012Z,1.90
2019-04-14T06:47:11.876Z,2.00
2019-04-14T06:49:48.928Z,2.00
2019-04-14T06:52:09.324Z,2.20
2019-04-14T06:54:37.254Z,2.20
2019-04-14T06:57:05.192Z,2.20
2019-04-14T06:59:33.103Z,2.20
2019-04-14T07:02:01.923Z,2.30
2019-04-14T07:04:29.988Z,2.40
2019-04-14T07:06:57.928Z,2.50
2019-04-14T07:09:25.850Z,2.70
2019-04-14T07:11:53.849Z,2.80
2019-04-14T07:14:21.716Z,3.00
2019-04-14T07:16:51.378Z,3.10
2019-04-14T07:19:19.575Z,3.20
2019-04-14T07:21:47.697Z,3.30
2019-04-14T07:24:15.609Z,3.40
2019-04-14T07:26:43.520Z,3.60
2019-04-14T07:29:11.542Z,3.60
2019-04-14T07:31:57.342Z,3.60
2019-04-14T07:34:29.897Z,3.70
2019-04-14T07:37:02.430Z,3.90
2019-04-14T07:39:32.034Z,3.90
2019-04-14T07:42:01.576Z,4.10
2019-04-14T07:44:33.796Z,4.20
2019-04-14T07:47:03.267Z,4.40
2019-04-14T07:49:48.930Z,4.60
2019-04-14T07:52:21.761Z,4.70
2019-04-14T07:54:51.729Z,4.90
2019-04-14T07:57:23.384Z,5.00
2019-04-14T08:00:04.861Z,5.20
2019-04-14T08:02:34.607Z,5.40
2019-04-14T08:05:07.609Z,5.50
2019-04-14T08:07:36.515Z,5.50
2019-04-14T08:10:06.006Z,5.60
2019-04-14T08:12:35.296Z,5.70
2019-04-14T08:15:03.559Z,5.70
2019-04-14T08:17:31.454Z,5.80
2019-04-14T08:19:59.369Z,5.60
2019-04-14T08:22:27.257Z,5.80
2019-04-14T08:24:55.172Z,6.00
2019-04-14T08:27:23.125Z,6.10
2019-04-14T08:29:51.049Z,6.20
2019-04-14T08:32:19.020Z,6.30
2019-04-14T08:34:46.922Z,6.30
2019-04-14T08:37:14.932Z,6.30
2019-04-14T08:39:42.858Z,6.50
2019-04-14T08:42:27.033Z,6.40
2019-04-14T08:44:56.588Z,6.50
2019-04-14T08:47:28.839Z,6.50
2019-04-14T08:50:10.001Z,6.60
2019-04-14T08:52:45.727Z,6.50
2019-04-14T08:55:15.281Z,6.50
2019-04-14T08:57:47.315Z,6.60
2019-04-14T09:00:25.609Z,6.80
2019-04-14T09:03:11.655Z,6.90
2019-04-14T09:05:44.186Z,7.10
2019-04-14T09:08:25.834Z,7.30
2019-04-14T09:10:58.460Z,7.40
2019-04-14T09:13:27.569Z,7.50
2019-04-14T09:15:55.578Z,7.70
2019-04-14T09:18:23.506Z,7.80
2019-04-14T09:20:52.720Z,7.90
2019-04-14T09:23:20.775Z,8.10
2019-04-14T09:25:48.746Z,8.10
2019-04-14T09:28:19.167Z,8.10
2019-04-14T09:30:47.113Z,8.30
2019-04-14T09:33:15.023Z,8.50
2019-04-14T09:35:42.965Z,8.60
2019-04-14T09:38:10.910Z,8.90
2019-04-14T09:40:38.852Z,9.00
2019-04-14T09:43:07.078Z,9.00
2019-04-14T09:45:35.308Z,9.20
2019-04-14T09:48:03.200Z,9.50
2019-04-14T09:50:31.637Z,9.20
2019-04-14T09:52:59.723Z,8.90
2019-04-14T09:55:27.704Z,8.90
2019-04-14T09:57:55.663Z,8.70
2019-04-14T10:00:23.576Z,8.40
2019-04-14T10:02:51.491Z,8.40
2019-04-14T10:05:19.523Z,8.10
2019-04-14T10:07:47.471Z,7.90
2019-04-14T10:10:15.505Z,8.00
2019-04-14T10:12:43.615Z,8.00
2019-04-14T10:15:11.548Z,8.00
2019-04-14T10:17:39.398Z,8.20
2019-04-14T10:20:07.331Z,8.50
2019-04-14T10:22:35.514Z,8.50
2019-04-14T10:25:04.087Z,8.50
2019-04-14T10:27:32.047Z,8.40
2019-04-14T10:29:59.931Z,8.30
2019-04-14T10:32:28.335Z,8.40
2019-04-14T10:34:56.247Z,8.40
2019-04-14T10:37:24.146Z,8.60
2019-04-14T10:39:52.371Z,9.00
2019-04-14T10:42:20.347Z,9.20
2019-04-14T10:44:48.288Z,9.10
2019-04-14T10:47:16.639Z,9.20
2019-04-14T10:49:44.563Z,9.20
2019-04-14T10:52:12.486Z,9.20
2019-04-14T10:54:41.305Z,9.30
2019-04-14T10:57:09.253Z,9.20
2019-04-14T10:59:37.127Z,9.20
2019-04-14T11:02:05.056Z,9.20
2019-04-14T11:04:32.987Z,9.10
2019-04-14T11:07:05.271Z,9.20
2019-04-14T11:09:33.199Z,9.40
2019-04-14T11:12:01.409Z,9.50
2019-04-14T11:14:29.323Z,9.60
2019-04-14T11:16:57.315Z,9.40
2019-04-14T11:19:25.269Z,9.30
2019-04-14T11:21:53.198Z,9.50
2019-04-14T11:24:23.990Z,9.70
2019-04-14T11:26:51.033Z,9.90
2019-04-14T11:29:18.952Z,10.00
2019-04-14T11:31:48.534Z,9.90
2019-04-14T11:34:18.098Z,9.90
2019-04-14T11:37:02.687Z,10.20
2019-04-14T11:39:30.722Z,10.40
2019-04-14T11:41:58.889Z,10.70
2019-04-14T11:44:26.795Z,10.70
2019-04-14T11:46:55.629Z,10.70
2019-04-14T11:49:23.545Z,10.50
2019-04-14T11:51:55.575Z,10.50
2019-04-14T11:54:21.153Z,10.50
2019-04-14T11:56:49.119Z,10.80
2019-04-14T11:59:18.733Z,10.90
2019-04-14T12:01:48.296Z,10.90
2019-04-14T12:04:29.955Z,10.90
2019-04-14T12:07:02.334Z,10.80
2019-04-14T12:09:34.605Z,10.60
2019-04-14T12:12:02.614Z,10.30
2019-04-14T12:14:30.592Z,10.30
2019-04-14T12:16:58.770Z,10.50
2019-04-14T12:19:26.754Z,10.30
2019-04-14T12:22:07.414Z,9.90
2019-04-14T12:24:24.285Z,9.60
2019-04-14T12:26:52.311Z,9.40
2019-04-14T12:29:21.404Z,9.20
2019-04-14T12:31:50.835Z,9.10
2019-04-14T12:34:18.828Z,8.90
2019-04-14T12:36:47.136Z,8.80
2019-04-14T12:39:16.674Z,8.70
2019-04-14T12:41:58.097Z,8.50
2019-04-14T12:44:39.520Z,8.30
2019-04-14T12:47:11.714Z,8.10
2019-04-14T12:49:41.252Z,8.10
2019-04-14T12:52:21.647Z,8.10
2019-04-14T12:54:45.324Z,8.00
2019-04-14T12:57:14.453Z,8.10
2019-04-14T12:59:42.380Z,7.90
2019-04-14T13:02:11.971Z,7.90
2019-04-14T13:04:39.891Z,7.90
2019-04-14T13:07:07.816Z,7.80
2019-04-14T13:09:35.765Z,7.80
2019-04-14T13:12:03.717Z,7.70
2019-04-14T13:14:31.809Z,7.70
2019-04-14T13:16:59.661Z,7.70
2019-04-14T13:19:27.604Z,7.70
2019-04-14T13:21:55.951Z,7.70
2019-04-14T13:24:23.955Z,7.70
2019-04-14T13:26:51.895Z,7.70
2019-04-14T13:29:19.891Z,7.70
2019-04-14T13:31:47.964Z,7.70
2019-04-14T13:34:15.886Z,7.70
2019-04-14T13:36:43.841Z,7.60
2019-04-14T13:39:12.818Z,7.60
2019-04-14T13:41:40.899Z,7.50
2019-04-14T13:44:10.895Z,7.60
2019-04-14T13:46:39.242Z,7.50
2019-04-14T13:49:08.250Z,7.50
2019-04-14T13:51:36.321Z,7.50
2019-04-14T13:54:04.963Z,7.50
2019-04-14T13:56:34.513Z,7.50
2019-04-14T13:59:02.713Z,7.60
2019-04-14T14:01:31.063Z,7.60
2019-04-14T14:03:59.555Z,7.60
2019-04-14T14:06:27.454Z,7.60
2019-04-14T14:08:55.413Z,7.60
2019-04-14T14:11:25.570Z,7.50
2019-04-14T14:14:00.300Z,7.40
2019-04-14T14:16:35.030Z,7.50
2019-04-14T14:19:06.741Z,7.40
2019-04-14T14:21:37.681Z,7.50
2019-04-14T14:24:07.660Z,7.30
2019-04-14T14:26:48.877Z,7.20
2019-04-14T14:29:16.974Z,7.10
2019-04-14T14:31:44.887Z,7.10
2019-04-14T14:34:12.833Z,7.10
2019-04-14T14:36:40.770Z,7.10
2019-04-14T14:39:10.458Z,7.20
2019-04-14T14:41:41.384Z,7.30
2019-04-14T14:44:09.728Z,7.30
2019-04-14T14:46:54.251Z,7.30
2019-04-14T14:49:26.293Z,7.40
2019-04-14T14:51:58.456Z,7.40
2019-04-14T14:54:26.718Z,7.30
2019-04-14T14:56:55.135Z,7.20
2019-04-14T14:59:24.178Z,7.20
2019-04-14T15:01:55.349Z,7.10
2019-04-14T15:04:23.838Z,6.90
2019-04-14T15:06:54.598Z,6.80
2019-04-14T15:09:24.450Z,6.80
2019-04-14T15:11:52.722Z,6.70
2019-04-14T15:14:23.414Z,6.60
2019-04-14T15:16:54.018Z,6.50
2019-04-14T15:19:22.668Z,6.40
2019-04-14T15:21:50.642Z,6.40
2019-04-14T15:24:20.513Z,6.50
2019-04-14T15:26:48.841Z,6.50
2019-04-14T15:29:18.545Z,6.60
2019-04-14T15:31:50.720Z,6.60
2019-04-14T15:34:18.929Z,6.60
2019-04-14T15:36:50.896Z,6.70
2019-04-14T15:39:19.949Z,6.70
2019-04-14T15:41:49.594Z,6.70
2019-04-14T15:44:17.571Z,6.60
2019-04-14T15:46:45.407Z,6.70
2019-04-14T15:49:13.824Z,6.70
2019-04-14T15:51:43.372Z,6.80
2019-04-14T15:54:14.907Z,6.80
2019-04-14T15:56:59.078Z,6.70
2019-04-14T15:59:29.603Z,6.70
2019-04-14T16:02:03.472Z,6.60
2019-04-14T16:04:40.802Z,6.40
2019-04-14T16:07:30.088Z,6.20
2019-04-14T16:10:06.358Z,6.20
2019-04-14T16:12:41.982Z,6.10
2019-04-14T16:15:15.911Z,6.10
2019-04-14T16:17:48.777Z,6.00
2019-04-14T16:20:27.248Z,6.00
2019-04-14T16:22:55.298Z,5.90
2019-04-14T16:25:26.835Z,5.90
2019-04-14T16:28:00.797Z,5.90
2019-04-14T16:30:31.347Z,5.90
2019-04-14T16:33:07.044Z,5.90
2019-04-14T16:35:37.194Z,5.90
2019-04-14T16:38:05.528Z,5.80
2019-04-14T16:40:36.122Z,5.80
2019-04-14T16:43:05.009Z,5.90
2019-04-14T16:45:33.869Z,5.90
2019-04-14T16:48:02.456Z,6.00
2019-04-14T16:50:30.608Z,6.00
2019-04-14T16:53:15.227Z,6.00
2019-04-14T16:55:47.905Z,6.00
2019-04-14T16:58:29.521Z,6.00
2019-04-14T17:01:01.835Z,5.90
2019-04-14T17:03:29.755Z,5.90
2019-04-14T17:05:57.650Z,5.80
2019-04-14T17:08:25.655Z,5.80
2019-04-14T17:10:53.564Z,5.80
2019-04-14T17:13:22.308Z,5.80
2019-04-14T17:15:51.860Z,5.80
2019-04-14T17:18:36.540Z,5.70
2019-04-14T17:21:08.865Z,5.70
2019-04-14T17:23:38.482Z,5.70
2019-04-14T17:26:23.111Z,5.70
2019-04-14T17:29:04.700Z,5.70
2019-04-14T17:31:50.335Z,5.70
2019-04-14T17:34:25.915Z,5.70
2019-04-14T17:37:11.825Z,5.70
2019-04-14T17:39:41.437Z,5.70
2019-04-14T17:42:27.054Z,5.70
2019-04-14T17:45:08.761Z,5.70
2019-04-14T17:47:47.337Z,5.60
2019-04-14T17:50:40.627Z,5.60
2019-04-14T17:53:03.279Z,5.60
2019-04-14T17:55:49.740Z,5.60
2019-04-14T17:58:18.714Z,5.60
2019-04-14T18:00:54.360Z,5.60
2019-04-14T18:03:26.387Z,5.60
2019-04-14T18:05:55.898Z,5.60
2019-04-14T18:08:34.060Z,5.60
2019-04-14T18:11:15.371Z,5.60
2019-04-14T18:13:44.919Z,5.50
2019-04-14T18:16:14.474Z,5.50
2019-04-14T18:19:00.176Z,5.50
2019-04-14T18:21:28.129Z,5.50
2019-04-14T18:23:56.288Z,5.50
2019-04-14T18:26:24.271Z,5.50
2019-04-14T18:28:53.710Z,5.50
2019-04-14T18:31:29.246Z,5.50
2019-04-14T18:33:58.762Z,5.60
2019-04-14T18:36:28.353Z,5.60
2019-04-14T18:38:57.932Z,5.60
2019-04-14T18:41:36.639Z,5.60
2019-04-14T18:44:06.254Z,5.50
2019-04-14T18:46:54.114Z,5.50
2019-04-14T18:49:26.671Z,5.50
2019-04-14T18:51:58.906Z,5.50
2019-04-14T18:54:28.470Z,5.50
2019-04-14T18:56:58.067Z,5.50
2019-04-14T18:59:30.495Z,5.50
2019-04-14T19:01:58.576Z,5.50
2019-04-14T19:04:26.534Z,5.50
2019-04-14T19:06:54.450Z,5.50
2019-04-14T19:09:24.502Z,5.50
2019-04-14T19:11:56.987Z,5.50
2019-04-14T19:14:29.528Z,5.50
2019-04-14T19:17:05.076Z,5.50
2019-04-14T19:19:34.694Z,5.50
2019-04-14T19:22:02.530Z,5.50
2019-04-14T19:24:30.461Z,5.60
2019-04-14T19:26:58.745Z,5.60
2019-04-14T19:29:27.840Z,5.60
2019-04-14T19:31:56.650Z,5.60
2019-04-14T19:34:24.907Z,5.60
2019-04-14T19:36:53.238Z,5.60
2019-04-14T19:39:21.545Z,5.60
2019-04-14T19:41:50.115Z,5.60
2019-04-14T19:44:18.781Z,5.60
2019-04-14T19:46:46.996Z,5.60
2019-04-14T19:49:14.902Z,5.60
2019-04-14T19:51:42.858Z,5.60
2019-04-14T19:54:10.798Z,5.60
2019-04-14T19:56:38.776Z,5.60
2019-04-14T19:59:07.009Z,5.60
2019-04-14T20:01:34.953Z,5.60
2019-04-14T20:04:02.899Z,5.60
2019-04-14T20:06:30.812Z,5.60
2019-04-14T20:08:58.755Z,5.60
2019-04-14T20:11:26.746Z,5.60
2019-04-14T20:13:54.693Z,5.60
2019-04-14T20:16:24.251Z,5.50
2019-04-14T20:19:10.572Z,5.60
2019-04-14T20:21:36.972Z,5.50
2019-04-14T20:24:12.047Z,5.50
2019-04-14T20:26:41.613Z,5.50
2019-04-14T20:29:11.190Z,5.50
2019-04-14T20:31:43.698Z,5.50
2019-04-14T20:34:11.640Z,5.50
2019-04-14T20:36:39.558Z,5.40
2019-04-14T20:39:09.531Z,5.40
2019-04-14T20:41:37.465Z,5.40
2019-04-14T20:44:05.418Z,5.40
2019-04-14T20:46:33.320Z,5.40
2019-04-14T20:49:01.191Z,5.40
2019-04-14T20:51:29.095Z,5.40
2019-04-14T20:53:57.062Z,5.40
2019-04-14T20:56:24.922Z,5.40
2019-04-14T20:58:52.818Z,5.40
2019-04-14T21:01:21.526Z,5.40
2019-04-14T21:04:09.043Z,5.40
2019-04-14T21:06:38.597Z,5.40
2019-04-14T21:09:08.384Z,5.30
2019-04-14T21:11:43.362Z,5.30
2019-04-14T21:14:15.899Z,5.30
2019-04-14T21:16:57.181Z,5.30
2019-04-14T21:19:38.310Z,5.30
2019-04-14T21:22:19.665Z,5.30
2019-04-14T21:25:05.669Z,5.30
2019-04-14T21:27:38.183Z,5.30
2019-04-14T21:30:17.747Z,5.30
2019-04-14T21:32:53.403Z,5.30
2019-04-14T21:35:39.318Z,5.30
2019-04-14T21:38:17.582Z,5.30
2019-04-14T21:40:47.179Z,5.40
2019-04-14T21:43:15.183Z,5.40
2019-04-14T21:45:43.164Z,5.40
2019-04-14T21:48:11.067Z,5.40
2019-04-14T21:50:38.999Z,5.40
2019-04-14T21:53:06.956Z,5.40
2019-04-14T21:55:34.859Z,5.40
2019-04-14T21:58:04.448Z,5.40
2019-04-14T22:00:59.222Z,5.40
2019-04-14T22:03:28.913Z,5.40
2019-04-14T22:05:58.464Z,5.40
2019-04-14T22:08:28.067Z,5.40
2019-04-14T22:11:00.597Z,5.40
2019-04-14T22:13:28.527Z,5.40
2019-04-14T22:15:56.469Z,5.40
2019-04-14T22:18:24.401Z,5.40
2019-04-14T22:20:52.339Z,5.40
2019-04-14T22:23:20.266Z,5.40
2019-04-14T22:25:48.145Z,5.40
2019-04-14T22:28:16.051Z,5.40
2019-04-14T22:30:44.018Z,5.40
2019-04-14T22:33:11.937Z,5.40
2019-04-14T22:35:39.885Z,5.40
2019-04-14T22:38:07.814Z,5.40
2019-04-14T22:40:35.943Z,5.40
2019-04-14T22:43:04.123Z,5.50
2019-04-14T22:45:32.126Z,5.50
2019-04-14T22:48:00.076Z,5.40
2019-04-14T22:50:28.128Z,5.50
2019-04-14T22:52:55.985Z,5.50
2019-04-14T22:55:23.847Z,5.50
2019-04-14T22:57:51.777Z,5.50
2019-04-14T23:00:21.767Z,5.50
2019-04-14T23:03:00.245Z,5.40
2019-04-14T23:05:29.794Z,5.50
2019-04-14T23:08:15.481Z,5.40
2019-04-14T23:10:45.050Z,5.30
2019-04-14T23:13:31.012Z,5.40
2019-04-14T23:16:00.564Z,5.40
2019-04-14T23:18:38.977Z,5.40
2019-04-14T23:21:11.604Z,5.40
2019-04-14T23:23:50.022Z,5.40
2019-04-14T23:26:17.947Z,5.40
2019-04-14T23:28:45.893Z,5.40
2019-04-14T23:31:13.871Z,5.40
2019-04-14T23:33:41.764Z,5.40
2019-04-14T23:36:09.765Z,5.40
2019-04-14T23:38:37.707Z,5.40
2019-04-14T23:41:05.731Z,5.40
2019-04-14T23:43:33.644Z,5.40
2019-04-14T23:46:01.646Z,5.40
2019-04-14T23:48:29.606Z,5.40
2019-04-14T23:50:57.508Z,5.40
2019-04-14T23:53:25.474Z,5.40
2019-04-14T23:55:53.412Z,5.30
2019-04-14T23:58:21.322Z,5.30
